createdAt,value
2018-12-03T00:02:11.479Z,17.07
2018-12-03T00:04:42.999Z,14.53
2018-12-03T00:07:14.655Z,20.30
2018-12-03T00:09:43.956Z,14.23
2018-12-03T00:12:13.255Z,17.27
2018-12-03T00:14:42.247Z,12.73
2018-12-03T00:17:12.060Z,17.97
2018-12-03T00:19:41.050Z,15.20
2018-12-03T00:22:10.045Z,11.40
2018-12-03T00:24:39.900Z,12.13
2018-12-03T00:27:08.967Z,13.60
2018-12-03T00:29:38.663Z,15.73
2018-12-03T00:32:08.064Z,13.97
2018-12-03T00:34:37.056Z,14.93
2018-12-03T00:37:06.111Z,16.83
2018-12-03T00:39:34.838Z,16.43
2018-12-03T00:42:04.302Z,20.00
2018-12-03T00:44:33.617Z,14.30
2018-12-03T00:47:02.479Z,16.77
2018-12-03T00:49:31.489Z,20.23
2018-12-03T00:52:00.197Z,13.33
2018-12-03T00:54:29.197Z,19.23
2018-12-03T00:56:58.259Z,18.30
2018-12-03T00:59:27.659Z,16.17
2018-12-03T01:01:56.678Z,16.23
2018-12-03T01:04:25.745Z,14.97
2018-12-03T01:06:54.421Z,14.27
2018-12-03T01:09:23.467Z,13.33
2018-12-03T01:11:52.767Z,18.50
2018-12-03T01:14:21.759Z,16.17
2018-12-03T01:16:50.430Z,15.83
2018-12-03T01:19:19.746Z,10.33
2018-12-03T01:21:48.764Z,13.70
2018-12-03T01:24:18.346Z,14.90
2018-12-03T01:26:48.189Z,11.67
2018-12-03T01:29:17.559Z,15.50
2018-12-03T01:31:46.864Z,17.03
2018-12-03T01:34:15.530Z,14.87
2018-12-03T01:36:44.573Z,21.27
2018-12-03T01:39:14.340Z,27.47
2018-12-03T01:41:44.267Z,22.20
2018-12-03T01:44:13.771Z,19.43
2018-12-03T01:46:42.833Z,23.60
2018-12-03T01:49:12.170Z,23.23
2018-12-03T01:51:43.102Z,26.87
2018-12-03T01:54:12.228Z,25.07
2018-12-03T01:56:41.192Z,21.20
2018-12-03T01:59:10.405Z,29.97
2018-12-03T02:01:39.058Z,19.13
2018-12-03T02:04:08.069Z,24.13
2018-12-03T02:06:38.467Z,27.73
2018-12-03T02:09:09.217Z,26.20
2018-12-03T02:11:38.189Z,27.60
2018-12-03T02:14:07.740Z,24.77
2018-12-03T02:16:37.439Z,31.30
2018-12-03T02:19:06.587Z,23.87
2018-12-03T02:21:35.278Z,23.27
2018-12-03T02:24:04.618Z,24.93
2018-12-03T02:26:33.921Z,27.97
2018-12-03T02:29:02.595Z,21.47
2018-12-03T02:31:31.907Z,20.80
2018-12-03T02:34:00.856Z,28.90
2018-12-03T02:36:30.193Z,25.03
2018-12-03T02:38:59.868Z,24.13
2018-12-03T02:41:28.899Z,19.13
2018-12-03T02:43:57.659Z,26.20
2018-12-03T02:46:27.063Z,22.90
2018-12-03T02:48:56.799Z,28.50
2018-12-03T02:51:25.790Z,19.77
2018-12-03T02:53:54.460Z,26.47
2018-12-03T02:56:23.157Z,24.20
2018-12-03T02:58:52.140Z,27.80
2018-12-03T03:01:21.107Z,21.23
2018-12-03T03:03:50.121Z,18.93
2018-12-03T03:06:19.511Z,20.00
2018-12-03T03:08:48.211Z,22.57
2018-12-03T03:11:16.892Z,26.47
2018-12-03T03:13:45.987Z,21.37
2018-12-03T03:16:16.235Z,25.57
2018-12-03T03:18:45.539Z,23.90
2018-12-03T03:21:15.249Z,23.90
2018-12-03T03:23:43.948Z,33.13
2018-12-03T03:26:13.335Z,24.90
2018-12-03T03:28:42.031Z,26.57
2018-12-03T03:31:11.013Z,31.27
2018-12-03T03:33:40.743Z,28.33
2018-12-03T03:36:09.420Z,20.60
2018-12-03T03:38:38.486Z,22.97
2018-12-03T03:41:07.655Z,27.50
2018-12-03T03:43:36.765Z,30.43
2018-12-03T03:46:05.946Z,25.00
2018-12-03T03:48:34.959Z,22.07
2018-12-03T03:51:03.935Z,25.17
2018-12-03T03:53:32.748Z,24.00
2018-12-03T03:56:01.714Z,19.13
2018-12-03T03:58:30.728Z,23.03
2018-12-03T04:00:59.698Z,21.57
2018-12-03T04:03:28.736Z,26.30
2018-12-03T04:05:58.860Z,30.00
2018-12-03T04:08:27.927Z,23.87
2018-12-03T04:10:56.964Z,32.50
2018-12-03T04:13:25.664Z,31.20
2018-12-03T04:15:54.311Z,24.75
2018-12-03T04:18:23.500Z,23.80
2018-12-03T04:20:52.175Z,24.53
2018-12-03T04:23:21.221Z,31.80
2018-12-03T04:25:49.894Z,28.47
2018-12-03T04:28:21.308Z,26.03
2018-12-03T04:30:49.985Z,30.63
2018-12-03T04:33:18.980Z,39.13
2018-12-03T04:35:47.956Z,29.80
2018-12-03T04:38:16.667Z,37.13
2018-12-03T04:40:45.636Z,32.60
2018-12-03T04:43:14.653Z,39.07
2018-12-03T04:45:43.971Z,25.90
2018-12-03T04:48:12.646Z,26.33
2018-12-03T04:50:42.068Z,28.03
2018-12-03T04:53:11.055Z,27.53
2018-12-03T04:55:40.352Z,31.50
2018-12-03T04:58:09.029Z,22.63
2018-12-03T05:00:38.338Z,33.80
2018-12-03T05:03:07.371Z,25.10
2018-12-03T05:05:36.735Z,27.40
2018-12-03T05:08:05.910Z,23.90
2018-12-03T05:10:35.330Z,24.73
2018-12-03T05:13:04.427Z,20.47
2018-12-03T05:15:34.276Z,31.00
2018-12-03T05:18:03.560Z,21.00
2018-12-03T05:20:32.944Z,21.87
2018-12-03T05:23:01.998Z,19.70
2018-12-03T05:25:31.339Z,23.27
2018-12-03T05:28:00.332Z,22.07
2018-12-03T05:30:29.011Z,29.67
2018-12-03T05:32:57.718Z,20.50
2018-12-03T05:35:29.936Z,20.23
2018-12-03T05:37:58.844Z,23.47
2018-12-03T05:40:31.502Z,28.10
2018-12-03T05:43:00.512Z,20.57
2018-12-03T05:45:29.482Z,20.73
2018-12-03T05:47:58.196Z,18.57
2018-12-03T05:50:27.260Z,20.27
2018-12-03T05:52:56.278Z,21.80
2018-12-03T05:55:25.351Z,18.77
2018-12-03T05:57:54.699Z,23.80
2018-12-03T06:00:24.521Z,24.87
2018-12-03T06:02:53.504Z,21.90
2018-12-03T06:05:23.021Z,23.83
2018-12-03T06:07:52.097Z,24.43
2018-12-03T06:10:21.623Z,25.73
2018-12-03T06:12:52.337Z,35.10
2018-12-03T06:15:21.462Z,25.00
2018-12-03T06:17:51.877Z,28.37
2018-12-03T06:20:21.871Z,25.63
2018-12-03T06:22:53.942Z,27.40
2018-12-03T06:25:29.647Z,22.60
2018-12-03T06:27:59.715Z,27.43
2018-12-03T06:30:29.015Z,22.60
2018-12-03T06:32:58.418Z,22.93
2018-12-03T06:35:27.502Z,25.03
2018-12-03T06:37:56.171Z,23.30
2018-12-03T06:40:29.542Z,25.37
2018-12-03T06:42:59.422Z,19.70
2018-12-03T06:45:28.857Z,26.00
2018-12-03T06:48:02.657Z,30.50
2018-12-03T06:50:31.740Z,22.63
2018-12-03T06:53:01.110Z,21.03
2018-12-03T06:55:30.415Z,20.27
2018-12-03T06:57:59.815Z,27.70
2018-12-03T07:00:29.223Z,23.47
2018-12-03T07:02:58.416Z,25.03
2018-12-03T07:05:27.970Z,30.63
2018-12-03T07:07:58.206Z,23.33
2018-12-03T07:10:27.533Z,24.73
2018-12-03T07:12:59.267Z,22.47
2018-12-03T07:15:29.419Z,17.00
2018-12-03T07:17:59.134Z,25.43
2018-12-03T07:20:28.227Z,21.10
2018-12-03T07:22:57.526Z,18.23
2018-12-03T07:25:27.239Z,20.00
2018-12-03T07:27:56.164Z,16.00
2018-12-03T07:30:26.148Z,18.97
2018-12-03T07:32:55.377Z,22.37
2018-12-03T07:35:24.702Z,19.07
2018-12-03T07:37:57.238Z,22.20
2018-12-03T07:40:26.571Z,22.20
2018-12-03T07:42:55.565Z,14.20
2018-12-03T07:45:25.262Z,23.10
2018-12-03T07:47:54.270Z,18.30
2018-12-03T07:50:24.474Z,15.87
2018-12-03T07:52:53.687Z,26.17
2018-12-03T07:55:24.162Z,21.57
2018-12-03T07:58:15.874Z,18.17
2018-12-03T08:00:47.199Z,27.40
2018-12-03T08:03:17.146Z,14.30
2018-12-03T08:05:47.417Z,18.87
2018-12-03T08:08:16.974Z,17.70
2018-12-03T08:10:50.947Z,19.93
2018-12-03T08:13:21.865Z,18.20
2018-12-03T08:15:51.243Z,18.13
2018-12-03T08:18:21.589Z,19.60
2018-12-03T08:21:10.155Z,15.20
2018-12-03T08:24:02.667Z,18.03
2018-12-03T08:26:32.146Z,17.43
2018-12-03T08:29:01.456Z,21.80
2018-12-03T08:31:30.851Z,21.73
2018-12-03T08:33:59.885Z,18.80
2018-12-03T08:36:28.947Z,19.73
2018-12-03T08:38:59.790Z,19.63
2018-12-03T08:41:29.896Z,20.10
2018-12-03T08:43:59.200Z,23.77
2018-12-03T08:46:28.498Z,23.73
2018-12-03T08:48:58.108Z,20.30
2018-12-03T08:51:27.710Z,17.97
2018-12-03T08:53:57.044Z,13.97
2018-12-03T08:56:25.789Z,17.03
2018-12-03T08:58:55.211Z,20.93
2018-12-03T09:01:24.454Z,16.37
2018-12-03T09:04:13.749Z,27.33
2018-12-03T09:06:42.426Z,18.70
2018-12-03T09:09:13.907Z,27.93
2018-12-03T09:11:47.373Z,26.40
2018-12-03T09:14:16.664Z,17.60
2018-12-03T09:16:45.568Z,18.90
2018-12-03T09:19:14.547Z,26.07
2018-12-03T09:21:43.244Z,24.87
2018-12-03T09:24:12.295Z,20.87
2018-12-03T09:26:42.523Z,23.43
2018-12-03T09:29:11.219Z,23.30
2018-12-03T09:31:40.229Z,23.50
2018-12-03T09:34:09.289Z,18.27
2018-12-03T09:36:39.355Z,18.20
2018-12-03T09:39:15.934Z,23.33
2018-12-03T09:41:45.480Z,21.03
2018-12-03T09:44:14.166Z,24.03
2018-12-03T09:46:42.967Z,17.10
2018-12-03T09:49:11.926Z,28.77
2018-12-03T09:51:40.598Z,19.93
2018-12-03T09:54:10.723Z,20.07
2018-12-03T09:56:44.350Z,25.97
2018-12-03T09:59:17.828Z,24.97
2018-12-03T10:01:49.133Z,28.97
2018-12-03T10:04:23.238Z,26.97
2018-12-03T10:06:52.410Z,16.13
2018-12-03T10:09:21.090Z,21.03
2018-12-03T10:11:50.983Z,15.13
2018-12-03T10:14:21.767Z,28.00
2018-12-03T10:16:50.451Z,24.63
2018-12-03T10:19:19.542Z,25.03
2018-12-03T10:21:48.486Z,16.20
2018-12-03T10:24:18.228Z,26.77
2018-12-03T10:26:47.069Z,21.97
2018-12-03T10:29:17.893Z,36.13
2018-12-03T10:31:48.569Z,27.30
2018-12-03T10:34:21.045Z,27.60
2018-12-03T10:36:57.777Z,19.23
2018-12-03T10:39:28.853Z,20.17
2018-12-03T10:42:07.572Z,27.57
2018-12-03T10:44:36.873Z,31.13
2018-12-03T10:47:06.245Z,23.87
2018-12-03T10:49:35.150Z,25.70
2018-12-03T10:52:04.086Z,21.37
2018-12-03T10:54:37.965Z,25.43
2018-12-03T10:57:09.630Z,22.00
2018-12-03T10:59:38.619Z,30.40
2018-12-03T11:02:30.021Z,17.70
2018-12-03T11:05:16.944Z,25.27
2018-12-03T11:07:46.969Z,21.13
2018-12-03T11:10:15.976Z,29.80
2018-12-03T11:12:50.873Z,27.30
2018-12-03T11:15:20.543Z,23.90
2018-12-03T11:17:49.642Z,19.93
2018-12-03T11:20:20.295Z,31.00
2018-12-03T11:22:49.625Z,26.30
2018-12-03T11:25:19.314Z,25.93
2018-12-03T11:27:49.818Z,18.73
2018-12-03T11:30:19.235Z,15.40
2018-12-03T11:32:48.460Z,25.60
2018-12-03T11:35:23.433Z,24.93
2018-12-03T11:37:54.492Z,25.10
2018-12-03T11:40:43.664Z,25.90
2018-12-03T11:43:12.340Z,37.80
2018-12-03T11:45:41.390Z,27.50
2018-12-03T11:48:11.448Z,31.90
2018-12-03T11:50:40.331Z,29.60
2018-12-03T11:53:09.329Z,30.83
2018-12-03T11:55:38.380Z,29.30
2018-12-03T11:58:07.409Z,25.63
2018-12-03T12:00:36.066Z,25.53
2018-12-03T12:03:06.646Z,28.57
2018-12-03T12:05:36.001Z,29.97
2018-12-03T12:08:05.281Z,33.53
2018-12-03T12:10:33.959Z,24.57
2018-12-03T12:13:05.870Z,32.63
2018-12-03T12:15:36.540Z,30.47
2018-12-03T12:18:05.332Z,25.40
2018-12-03T12:20:34.031Z,31.63
2018-12-03T12:23:02.736Z,22.47
2018-12-03T12:25:31.776Z,24.40
2018-12-03T12:28:01.069Z,23.87
2018-12-03T12:30:30.068Z,23.83
2018-12-03T12:32:59.414Z,27.83
2018-12-03T12:35:28.114Z,27.00
2018-12-03T12:37:58.624Z,34.43
2018-12-03T12:40:27.921Z,17.60
2018-12-03T12:42:57.938Z,29.00
2018-12-03T12:45:43.638Z,26.53
2018-12-03T12:48:13.229Z,28.30
2018-12-03T12:50:42.510Z,21.93
2018-12-03T12:53:11.192Z,17.73
2018-12-03T12:55:40.462Z,22.97
2018-12-03T12:58:09.574Z,20.20
2018-12-03T13:00:38.576Z,26.53
2018-12-03T13:03:07.487Z,26.13
2018-12-03T13:05:36.192Z,19.50
2018-12-03T13:08:04.934Z,32.57
2018-12-03T13:10:34.322Z,25.53
2018-12-03T13:13:03.377Z,36.90
2018-12-03T13:15:32.050Z,23.07
2018-12-03T13:18:00.736Z,27.83
2018-12-03T13:20:30.380Z,20.57
2018-12-03T13:22:59.433Z,23.13
2018-12-03T13:25:28.567Z,28.27
2018-12-03T13:27:58.143Z,30.63
2018-12-03T13:30:27.570Z,25.13
2018-12-03T13:32:56.919Z,27.50
2018-12-03T13:35:25.787Z,21.70
2018-12-03T13:37:55.504Z,26.13
2018-12-03T13:40:24.517Z,22.30
2018-12-03T13:42:54.767Z,18.13
2018-12-03T13:45:26.006Z,20.57
2018-12-03T13:47:57.075Z,24.10
2018-12-03T13:50:26.070Z,21.27
2018-12-03T13:52:56.627Z,26.53
2018-12-03T13:55:25.714Z,21.13
2018-12-03T13:58:04.122Z,21.37
2018-12-03T14:00:33.050Z,31.37
2018-12-03T14:03:26.225Z,25.60
2018-12-03T14:06:26.701Z,23.00
2018-12-03T14:09:41.237Z,20.10
2018-12-03T14:12:46.605Z,30.80
2018-12-03T14:15:48.317Z,28.27
2018-12-03T14:18:40.931Z,30.97
2018-12-03T14:21:31.984Z,21.33
2018-12-03T14:24:03.842Z,27.73
2018-12-03T14:26:33.406Z,26.53
2018-12-03T14:29:02.449Z,27.40
2018-12-03T14:31:31.744Z,20.57
2018-12-03T14:34:00.469Z,28.80
2018-12-03T14:36:29.485Z,33.37
2018-12-03T14:38:58.524Z,20.37
2018-12-03T14:41:27.619Z,32.33
2018-12-03T14:43:57.534Z,23.47
2018-12-03T14:46:27.975Z,30.50
2018-12-03T14:48:56.949Z,24.93
2018-12-03T14:51:25.644Z,20.17
2018-12-03T14:53:54.941Z,25.43
2018-12-03T14:56:24.042Z,23.07
2018-12-03T14:58:53.042Z,27.30
2018-12-03T15:01:22.492Z,23.50
2018-12-03T15:03:51.520Z,31.43
2018-12-03T15:06:20.722Z,22.83
2018-12-03T15:08:50.106Z,25.27
2018-12-03T15:11:19.519Z,29.10
2018-12-03T15:13:48.518Z,23.03
2018-12-03T15:16:17.200Z,26.10
2018-12-03T15:18:46.339Z,30.37
2018-12-03T15:21:15.639Z,21.00
2018-12-03T15:23:44.691Z,29.50
2018-12-03T15:26:13.993Z,37.17
2018-12-03T15:28:42.690Z,27.00
2018-12-03T15:31:11.369Z,23.70
2018-12-03T15:33:40.434Z,27.83
2018-12-03T15:36:09.374Z,29.23
2018-12-03T15:38:38.520Z,40.93
2018-12-03T15:41:07.898Z,23.07
2018-12-03T15:43:38.079Z,37.23
2018-12-03T15:46:07.349Z,33.27
2018-12-03T15:48:36.393Z,21.77
2018-12-03T15:51:05.806Z,21.67
2018-12-03T15:53:35.689Z,29.33
2018-12-03T15:56:04.980Z,24.57
2018-12-03T15:58:34.381Z,22.60
2018-12-03T16:01:03.340Z,25.83
2018-12-03T16:03:34.414Z,27.97
2018-12-03T16:06:03.727Z,14.60
2018-12-03T16:08:32.704Z,14.10
2018-12-03T16:11:02.009Z,25.03
2018-12-03T16:13:31.001Z,28.60
2018-12-03T16:15:59.730Z,25.30
2018-12-03T16:18:28.425Z,20.27
2018-12-03T16:20:57.103Z,31.70
2018-12-03T16:23:25.876Z,22.40
2018-12-03T16:25:54.583Z,13.50
2018-12-03T16:28:23.584Z,25.97
2018-12-03T16:30:52.972Z,23.35
2018-12-03T16:33:22.734Z,24.13
2018-12-03T16:35:51.966Z,35.23
2018-12-03T16:38:21.026Z,27.17
2018-12-03T16:40:49.703Z,29.57
2018-12-03T16:43:19.836Z,25.97
2018-12-03T16:45:49.235Z,24.73
2018-12-03T16:48:18.740Z,30.57
2018-12-03T16:50:48.040Z,29.37
2018-12-03T16:53:18.366Z,27.33
2018-12-03T16:55:48.278Z,29.13
2018-12-03T16:58:17.407Z,29.60
2018-12-03T17:00:46.775Z,21.03
2018-12-03T17:03:15.772Z,21.07
2018-12-03T17:05:44.474Z,25.97
2018-12-03T17:08:15.183Z,28.07
2018-12-03T17:10:44.899Z,26.17
2018-12-03T17:13:14.615Z,20.60
2018-12-03T17:15:44.012Z,24.57
2018-12-03T17:18:15.297Z,24.13
2018-12-03T17:21:29.846Z,23.77
2018-12-03T17:24:20.344Z,23.03
2018-12-03T17:26:49.531Z,27.87
2018-12-03T17:29:19.096Z,24.27
2018-12-03T17:31:48.419Z,31.67
2018-12-03T17:34:17.146Z,30.80
2018-12-03T17:36:46.190Z,26.53
2018-12-03T17:39:15.498Z,20.17
2018-12-03T17:41:46.388Z,25.07
2018-12-03T17:44:16.525Z,33.93
2018-12-03T17:46:45.207Z,31.50
2018-12-03T17:49:13.912Z,27.93
2018-12-03T17:51:42.876Z,34.73
2018-12-03T17:54:11.883Z,26.60
2018-12-03T17:56:41.985Z,34.43
2018-12-03T17:59:10.995Z,30.70
2018-12-03T18:01:40.324Z,28.60
2018-12-03T18:04:14.744Z,33.70
2018-12-03T18:06:44.226Z,30.00
2018-12-03T18:09:12.972Z,28.27
2018-12-03T18:11:41.828Z,26.20
2018-12-03T18:14:10.558Z,25.20
2018-12-03T18:16:39.916Z,23.93
2018-12-03T18:19:09.510Z,28.03
2018-12-03T18:21:38.471Z,30.77
2018-12-03T18:24:07.508Z,29.03
2018-12-03T18:26:37.591Z,29.77
2018-12-03T18:29:07.643Z,32.83
2018-12-03T18:31:36.377Z,27.53
2018-12-03T18:34:05.731Z,26.07
2018-12-03T18:36:35.136Z,35.27
2018-12-03T18:39:05.012Z,24.90
2018-12-03T18:41:34.715Z,27.03
2018-12-03T18:44:03.688Z,26.87
2018-12-03T18:46:32.379Z,28.10
2018-12-03T18:49:24.122Z,31.20
2018-12-03T18:51:52.839Z,28.33
2018-12-03T18:54:22.159Z,30.25
2018-12-03T18:56:50.851Z,27.90
2018-12-03T18:59:20.234Z,27.00
2018-12-03T19:01:49.307Z,21.03
2018-12-03T19:04:18.694Z,34.27
2018-12-03T19:06:47.728Z,25.90
2018-12-03T19:09:16.840Z,24.20
2018-12-03T19:11:46.183Z,23.10
2018-12-03T19:14:15.627Z,24.80
2018-12-03T19:16:44.770Z,29.07
2018-12-03T19:19:14.128Z,17.07
2018-12-03T19:21:43.674Z,29.50
2018-12-03T19:24:13.030Z,26.37
2018-12-03T19:26:42.151Z,20.20
2018-12-03T19:29:12.038Z,27.20
2018-12-03T19:31:42.651Z,28.00
2018-12-03T19:34:13.519Z,20.00
2018-12-03T19:36:44.621Z,27.67
2018-12-03T19:39:31.013Z,24.47
2018-12-03T19:41:59.710Z,24.40
2018-12-03T19:44:28.740Z,28.07
2018-12-03T19:46:57.478Z,29.47
2018-12-03T19:49:27.285Z,29.83
2018-12-03T19:51:57.702Z,21.83
2018-12-03T19:54:31.359Z,19.60
2018-12-03T19:57:02.738Z,27.00
2018-12-03T19:59:35.144Z,27.07
2018-12-03T20:02:04.183Z,25.50
2018-12-03T20:04:52.523Z,19.40
2018-12-03T20:07:21.916Z,26.60
2018-12-03T20:09:55.083Z,31.50
2018-12-03T20:12:24.119Z,26.37
2018-12-03T20:14:53.164Z,28.77
2018-12-03T20:17:28.636Z,21.30
2018-12-03T20:19:58.057Z,37.17
2018-12-03T20:22:31.736Z,23.10
2018-12-03T20:25:00.414Z,21.30
2018-12-03T20:27:53.987Z,22.63
2018-12-03T20:31:06.263Z,21.20
2018-12-03T20:33:51.658Z,20.13
2018-12-03T20:37:17.114Z,18.27
2018-12-03T20:40:20.791Z,16.13
2018-12-03T20:43:11.140Z,30.03
2018-12-03T20:46:32.862Z,29.57
2018-12-03T20:49:22.917Z,22.53
2018-12-03T20:51:57.543Z,15.17
2018-12-03T20:54:27.128Z,26.33
2018-12-03T20:56:56.272Z,22.27
2018-12-03T20:59:25.298Z,19.33
2018-12-03T21:01:54.356Z,11.67
2018-12-03T21:04:25.655Z,20.90
2018-12-03T21:06:54.743Z,14.03
2018-12-03T21:09:24.702Z,14.40
2018-12-03T21:11:53.742Z,22.77
2018-12-03T21:14:22.783Z,12.60
2018-12-03T21:16:52.035Z,10.57
2018-12-03T21:19:20.725Z,13.40
2018-12-03T21:21:50.749Z,16.93
2018-12-03T21:24:22.047Z,6.10
2018-12-03T21:26:51.140Z,10.83
2018-12-03T21:29:19.818Z,6.37
2018-12-03T21:31:48.883Z,5.60
2018-12-03T21:34:18.061Z,10.87
2018-12-03T21:36:46.851Z,9.90
2018-12-03T21:39:16.253Z,14.10
2018-12-03T21:41:45.250Z,8.10
2018-12-03T21:44:14.259Z,7.30
2018-12-03T21:46:43.854Z,14.83
2018-12-03T21:49:12.617Z,15.07
2018-12-03T21:52:25.091Z,12.17
2018-12-03T21:54:53.517Z,10.80
2018-12-03T21:57:20.880Z,7.03
2018-12-03T21:59:48.187Z,6.90
2018-12-03T22:02:15.744Z,8.40
2018-12-03T22:04:44.152Z,2.70
2018-12-03T22:07:11.446Z,12.90
2018-12-03T22:09:38.778Z,13.85
2018-12-03T22:12:06.054Z,14.63
2018-12-03T22:14:33.610Z,8.17
2018-12-03T22:17:00.911Z,11.27
2018-12-03T22:19:28.211Z,5.13
2018-12-03T22:21:55.499Z,10.87
2018-12-03T22:24:22.827Z,10.40
2018-12-03T22:26:50.116Z,5.90
2018-12-03T22:29:17.412Z,7.00
2018-12-03T22:31:46.613Z,10.10
2018-12-03T22:34:13.931Z,3.07
2018-12-03T22:36:41.243Z,10.50
2018-12-03T22:39:08.551Z,10.00
2018-12-03T22:41:35.858Z,5.50
2018-12-03T22:44:03.178Z,19.33
2018-12-03T22:46:30.531Z,8.33
2018-12-03T22:48:57.965Z,5.13
2018-12-03T22:51:25.295Z,9.73
2018-12-03T22:53:52.635Z,7.17
2018-12-03T22:56:20.319Z,11.83
2018-12-03T22:58:47.602Z,9.70
2018-12-03T23:01:19.491Z,8.80
2018-12-03T23:03:47.129Z,8.43
2018-12-03T23:06:14.424Z,18.70
2018-12-03T23:08:41.868Z,7.07
2018-12-03T23:11:09.180Z,5.70
2018-12-03T23:13:36.511Z,12.33
2018-12-03T23:16:03.903Z,14.57
2018-12-03T23:18:31.383Z,14.13
2018-12-03T23:20:58.708Z,15.33
2018-12-03T23:23:43.015Z,8.30
2018-12-03T23:26:10.330Z,14.10
2018-12-03T23:28:37.638Z,21.20
2018-12-03T23:31:05.183Z,4.33
2018-12-03T23:33:32.516Z,3.37
2018-12-03T23:35:59.824Z,8.73
2018-12-03T23:38:27.546Z,12.03
2018-12-03T23:40:55.274Z,8.10
2018-12-03T23:43:22.578Z,9.93
2018-12-03T23:45:49.992Z,10.33
2018-12-03T23:48:17.435Z,11.43
2018-12-03T23:50:48.090Z,8.17
2018-12-03T23:53:17.754Z,3.60
2018-12-03T23:55:45.390Z,5.60
2018-12-03T23:58:13.398Z,14.03
